Главная страница
METAR-TAF:

METAR-TAF

Аэропорты :

Hagerstown, Мэриленд, США

широта: 39-42-21N, долгота: 077-43-48W, высота над уровнем моря: 214 м

Текущие метеонаблюдения

Эта сводка был подготовлена 1 час и 12 минут назад, в 20:53 UTC
Ветер 8 Узел от северо-северо-восточный
Температура 18°C
Влажность 24%
Давление 1027 hPa
Видимость: 16.1 км
ясное небо

METAR: KHGR 192053Z 02008KT 10SM CLR 18/M03 A3032 RMK AO2 SLP277 T01781033 56013

Время: 18:05 (22:05 UTC)


TAF: отсутствует

Метеонаблюдения и прогнозы для более 4000 аэропортов (сводки METAR и TAF).

Имеющиеся станции представлены на карте желтыми и красными точками.

Чтобы увидеть название станции, наведите на нее мышь.

Затем щелкните, чтобы увидеть метеонаблюдения и метеопрогнозы.

Управление картой: чтобы увеличить масштаб, щелкните зеленые кнопки с черным крестиком; чтобы уменьшить масштаб, щелкните зеленую кнопку с тире; для просмотра соседних карт щелкайте зеленые стрелки.


METAR-TAF: